Time;durP1;ratioP1;P1;durP2;ratioP2;P2;SDS_P1;SDS_P2;PMS_P1;PMS_P2;Temp;Humidity;BMP_temperature;BMP_pressure;BME280_temperature;BME280_humidity;BME280_pressure;Samples;Min_cycle;Max_cycle;Signal;HPM_P1;HPM_P2
2023/05/26 00:00:17;;;;;;;;;;;12.00;99.90;;;;;;5073194;28;19919;-85
2023/05/26 00:02:43;;;;;;;;;;;11.90;99.90;;;;;;5073554;28;24073;-84
2023/05/26 00:05:09;;;;;;;;;;;11.80;99.90;;;;;;5082777;28;19913;-83
2023/05/26 00:07:42;;;;;;;;;;;11.80;99.90;;;;;;5081159;28;19909;-84
2023/05/26 00:10:08;;;;;;;;;;;11.80;99.90;;;;;;5072351;28;19955;-85
2023/05/26 00:12:34;;;;;;;;;;;11.70;99.90;;;;;;5081513;28;25131;-84
2023/05/26 00:14:59;;;;;;;;;;;11.70;99.90;;;;;;5073124;28;19912;-84
2023/05/26 00:17:25;;;;;;;;;;;11.70;99.90;;;;;;5073103;28;19952;-84
2023/05/26 00:19:52;;;;;;;;;;;11.70;99.90;;;;;;5072362;28;19915;-84
2023/05/26 00:22:18;;;;;;;;;;;11.70;99.90;;;;;;5072709;28;20291;-84
2023/05/26 00:24:47;;;;;;;;;;;11.60;99.90;;;;;;5073292;28;19920;-84
2023/05/26 00:27:13;;;;;;;;;;;11.60;99.90;;;;;;5072630;28;19905;-84
2023/05/26 00:29:39;;;;;;;;;;;11.60;99.90;;;;;;5073339;28;20315;-84
2023/05/26 00:32:04;;;;;;;;;;;11.60;99.90;;;;;;5072749;28;19908;-84
2023/05/26 00:34:30;;;;;;;;;;;11.50;99.90;;;;;;5073190;28;20323;-84
2023/05/26 00:36:56;;;;;;;;;;;11.50;99.90;;;;;;5072223;28;20355;-84
2023/05/26 00:39:21;;;;;;;;;;;11.40;99.90;;;;;;5072607;28;19916;-84
2023/05/26 00:41:48;;;;;;;;;;;11.40;99.90;;;;;;5055971;28;20369;-84
2023/05/26 00:44:13;;;;;;;;;;;11.40;99.90;;;;;;5071814;28;20382;-84
2023/05/26 00:46:40;;;;;;;;;;;11.30;99.90;;;;;;5072380;28;19908;-84
2023/05/26 00:49:05;;;;;;;;;;;11.30;99.90;;;;;;5072430;28;19920;-84
2023/05/26 00:51:32;;;;;;;;;;;11.30;99.90;;;;;;5073794;28;19908;-84
2023/05/26 00:53:58;;;;;;;;;;;11.20;99.90;;;;;;5072154;28;19915;-84
2023/05/26 00:56:27;;;;;;;;;;;11.20;99.90;;;;;;5072561;28;19931;-84
2023/05/26 00:58:56;;;;;;;;;;;11.20;99.90;;;;;;5072372;28;20356;-83
2023/05/26 01:01:21;;;;;;;;;;;11.10;99.90;;;;;;5089457;28;19912;-84
2023/05/26 01:03:47;;;;;;;;;;;11.00;99.90;;;;;;5055845;28;24075;-84
2023/05/26 01:06:13;;;;;;;;;;;11.00;99.90;;;;;;5072529;28;20332;-84
2023/05/26 01:08:38;;;;;;;;;;;11.00;99.90;;;;;;5072625;28;20666;-84
2023/05/26 01:11:12;;;;;;;;;;;11.00;99.90;;;;;;5072203;28;19915;-84
2023/05/26 01:13:46;;;;;;;;;;;11.00;99.90;;;;;;5072249;28;19908;-84
2023/05/26 01:16:12;;;;;;;;;;;11.00;99.90;;;;;;5055327;28;19908;-84
2023/05/26 01:18:44;;;;;;;;;;;10.90;99.90;;;;;;5072893;28;19908;-84
2023/05/26 01:21:13;;;;;;;;;;;10.90;99.90;;;;;;5075793;28;19900;-84
2023/05/26 01:23:52;;;;;;;;;;;10.80;99.90;;;;;;5075234;28;19912;-84
2023/05/26 01:26:26;;;;;;;;;;;10.80;99.90;;;;;;5062125;28;20352;-83
2023/05/26 01:28:55;;;;;;;;;;;10.80;99.90;;;;;;5058987;28;20026;-84
2023/05/26 01:31:21;;;;;;;;;;;10.70;99.90;;;;;;5075372;28;19905;-84
2023/05/26 01:33:46;;;;;;;;;;;10.80;99.90;;;;;;5075734;28;19931;-84
2023/05/26 01:36:12;;;;;;;;;;;10.80;99.90;;;;;;5075892;28;19912;-84
2023/05/26 01:38:39;;;;;;;;;;;10.70;99.90;;;;;;5075938;28;19909;-84
2023/05/26 01:41:12;;;;;;;;;;;10.60;99.90;;;;;;5075666;28;20330;-84
2023/05/26 01:43:41;;;;;;;;;;;10.50;99.90;;;;;;5077285;28;19912;-84
2023/05/26 01:46:10;;;;;;;;;;;10.50;99.90;;;;;;5075858;28;19908;-84
2023/05/26 01:48:37;;;;;;;;;;;10.50;99.90;;;;;;5075700;28;19908;-84
2023/05/26 01:51:04;;;;;;;;;;;10.50;99.90;;;;;;5075527;28;19908;-84
2023/05/26 01:53:31;;;;;;;;;;;10.50;99.90;;;;;;5075586;28;20371;-84
2023/05/26 01:55:58;;;;;;;;;;;10.50;99.90;;;;;;5069691;28;19908;-83
2023/05/26 01:58:24;;;;;;;;;;;10.50;99.90;;;;;;5075777;28;19909;-84
2023/05/26 02:00:52;;;;;;;;;;;10.40;99.90;;;;;;5075547;28;19919;-84
2023/05/26 02:03:18;;;;;;;;;;;10.40;99.90;;;;;;5058781;28;19909;-85
2023/05/26 02:05:43;;;;;;;;;;;10.40;99.90;;;;;;5075224;28;19915;-83
2023/05/26 02:08:10;;;;;;;;;;;10.30;99.90;;;;;;5075116;28;19931;-83
2023/05/26 02:10:36;;;;;;;;;;;10.30;99.90;;;;;;5074918;28;19908;-85
2023/05/26 02:13:03;;;;;;;;;;;10.40;99.90;;;;;;5074721;28;19939;-82
2023/05/26 02:15:29;;;;;;;;;;;10.40;99.90;;;;;;5091773;28;20257;-82
2023/05/26 02:17:57;;;;;;;;;;;10.40;99.90;;;;;;5074870;28;19999;-83
2023/05/26 02:20:26;;;;;;;;;;;10.40;99.90;;;;;;5075121;28;19912;-82
2023/05/26 02:22:54;;;;;;;;;;;10.40;99.90;;;;;;5060356;28;19908;-84
2023/05/26 02:25:20;;;;;;;;;;;10.30;99.90;;;;;;5062714;28;19916;-85
2023/05/26 02:27:46;;;;;;;;;;;10.30;99.90;;;;;;5078611;28;19909;-85
2023/05/26 02:30:12;;;;;;;;;;;10.30;99.90;;;;;;5076780;28;24122;-86
2023/05/26 02:32:37;;;;;;;;;;;10.30;99.90;;;;;;5078345;28;19911;-87
2023/05/26 02:35:04;;;;;;;;;;;10.20;99.90;;;;;;5080225;28;20356;-86
2023/05/26 02:37:31;;;;;;;;;;;10.20;99.90;;;;;;5078748;28;19908;-86
2023/05/26 02:39:56;;;;;;;;;;;10.20;99.90;;;;;;5078267;28;19914;-86
2023/05/26 02:42:22;;;;;;;;;;;10.20;99.90;;;;;;5077525;28;19908;-83
2023/05/26 02:44:48;;;;;;;;;;;10.10;99.90;;;;;;5080096;28;20014;-83
2023/05/26 02:47:13;;;;;;;;;;;10.00;99.90;;;;;;5077864;28;20317;-83
2023/05/26 02:49:40;;;;;;;;;;;10.10;99.90;;;;;;5090655;28;19919;-83
2023/05/26 02:52:05;;;;;;;;;;;10.10;99.90;;;;;;5080978;28;20006;-83
2023/05/26 02:54:31;;;;;;;;;;;10.00;99.90;;;;;;5079662;28;19948;-83
2023/05/26 02:56:56;;;;;;;;;;;10.00;99.90;;;;;;5078184;28;19909;-86
2023/05/26 02:59:22;;;;;;;;;;;10.10;99.90;;;;;;5079442;28;19916;-84
2023/05/26 03:01:48;;;;;;;;;;;10.10;99.90;;;;;;5077724;28;19912;-85
2023/05/26 03:04:13;;;;;;;;;;;10.20;99.90;;;;;;5077581;28;19908;-84
2023/05/26 03:06:41;;;;;;;;;;;10.10;99.90;;;;;;5077960;28;19915;-84
2023/05/26 03:09:09;;;;;;;;;;;10.10;99.90;;;;;;5077487;28;19908;-84
2023/05/26 03:11:34;;;;;;;;;;;10.00;99.90;;;;;;5077620;28;19912;-83
2023/05/26 03:14:00;;;;;;;;;;;10.00;99.90;;;;;;5077094;28;20275;-86
2023/05/26 03:16:27;;;;;;;;;;;10.00;99.90;;;;;;5077089;28;19908;-84
2023/05/26 03:18:53;;;;;;;;;;;9.90;99.90;;;;;;5078360;28;20450;-84
2023/05/26 03:21:19;;;;;;;;;;;9.80;99.90;;;;;;5075985;28;19923;-84
2023/05/26 03:23:44;;;;;;;;;;;9.80;99.90;;;;;;5072191;28;19909;-84
2023/05/26 03:26:11;;;;;;;;;;;9.80;99.90;;;;;;5072294;28;19935;-84
2023/05/26 03:28:37;;;;;;;;;;;9.70;99.90;;;;;;5076530;28;19909;-84
2023/05/26 03:31:04;;;;;;;;;;;9.70;99.90;;;;;;5065477;28;19908;-85
2023/05/26 03:33:31;;;;;;;;;;;9.70;99.90;;;;;;5074151;28;19916;-85
2023/05/26 03:36:00;;;;;;;;;;;9.70;99.90;;;;;;5055525;28;20371;-85
2023/05/26 03:38:27;;;;;;;;;;;9.70;99.90;;;;;;5073025;28;19918;-85
2023/05/26 03:41:25;;;;;;;;;;;9.70;99.90;;;;;;5056449;28;19909;-85
2023/05/26 03:43:55;;;;;;;;;;;9.80;99.90;;;;;;5075055;28;19908;-85
2023/05/26 03:46:21;;;;;;;;;;;9.80;99.90;;;;;;5073373;28;19915;-85
2023/05/26 03:48:46;;;;;;;;;;;9.80;99.90;;;;;;5073122;28;19929;-85
2023/05/26 03:51:13;;;;;;;;;;;9.80;99.90;;;;;;5073101;28;19916;-85
2023/05/26 03:53:38;;;;;;;;;;;9.90;99.90;;;;;;5073142;28;19912;-85
2023/05/26 03:56:04;;;;;;;;;;;9.90;99.90;;;;;;5073545;28;19999;-85
2023/05/26 03:58:30;;;;;;;;;;;9.90;99.90;;;;;;5072982;28;19962;-86
2023/05/26 04:00:55;;;;;;;;;;;9.90;99.90;;;;;;5072943;28;19912;-85
2023/05/26 04:03:21;;;;;;;;;;;10.00;99.90;;;;;;5073276;28;19970;-85
2023/05/26 04:05:47;;;;;;;;;;;9.90;99.90;;;;;;5072873;28;19975;-85
2023/05/26 04:08:13;;;;;;;;;;;10.00;99.90;;;;;;5072769;28;19908;-85
2023/05/26 04:10:39;;;;;;;;;;;10.00;99.90;;;;;;5072151;28;19912;-85
2023/05/26 04:13:04;;;;;;;;;;;10.00;99.90;;;;;;5072958;28;19947;-87
2023/05/26 04:15:30;;;;;;;;;;;10.10;99.90;;;;;;5072666;28;19908;-86
2023/05/26 04:17:55;;;;;;;;;;;10.10;99.90;;;;;;5072709;28;25149;-85
2023/05/26 04:20:21;;;;;;;;;;;10.20;99.90;;;;;;5072550;28;19912;-85
2023/05/26 04:22:47;;;;;;;;;;;10.10;99.90;;;;;;5056190;28;19916;-85
2023/05/26 04:25:13;;;;;;;;;;;10.10;99.90;;;;;;5072797;28;19912;-85
2023/05/26 04:27:52;;;;;;;;;;;10.10;99.90;;;;;;5057900;28;20267;-86
2023/05/26 04:30:39;;;;;;;;;;;10.20;99.90;;;;;;5065240;28;19917;-85
2023/05/26 04:33:15;;;;;;;;;;;10.20;99.90;;;;;;5074086;28;19908;-86
2023/05/26 04:35:57;;;;;;;;;;;10.30;99.90;;;;;;5072126;28;20533;-85
2023/05/26 04:38:23;;;;;;;;;;;10.30;99.90;;;;;;5072576;28;19908;-86
2023/05/26 04:40:49;;;;;;;;;;;10.40;99.90;;;;;;5072569;28;20712;-86
2023/05/26 04:43:14;;;;;;;;;;;10.40;99.90;;;;;;5072635;28;19909;-86
2023/05/26 04:45:41;;;;;;;;;;;10.40;99.90;;;;;;5072104;28;20403;-85
2023/05/26 04:48:08;;;;;;;;;;;10.40;99.90;;;;;;5073511;28;19909;-85
2023/05/26 04:50:38;;;;;;;;;;;10.50;99.90;;;;;;5055730;28;19916;-87
2023/05/26 04:53:06;;;;;;;;;;;10.50;99.90;;;;;;5056904;28;24062;-86
2023/05/26 04:55:35;;;;;;;;;;;10.60;99.90;;;;;;5065870;28;19912;-86
2023/05/26 04:58:03;;;;;;;;;;;10.60;99.90;;;;;;5077041;28;19995;-86
2023/05/26 05:00:31;;;;;;;;;;;10.70;99.90;;;;;;5076449;28;19916;-85
2023/05/26 05:03:03;;;;;;;;;;;10.70;99.90;;;;;;5076221;28;20509;-86
2023/05/26 05:05:42;;;;;;;;;;;10.80;99.90;;;;;;5087208;28;19915;-86
2023/05/26 05:08:07;;;;;;;;;;;10.80;99.90;;;;;;5075982;28;19909;-86
2023/05/26 05:10:33;;;;;;;;;;;10.90;99.90;;;;;;5075561;28;19908;-86
2023/05/26 05:12:59;;;;;;;;;;;10.90;99.90;;;;;;5080617;28;20359;-86
2023/05/26 05:15:25;;;;;;;;;;;11.00;99.90;;;;;;5076368;28;19908;-86
2023/05/26 05:18:03;;;;;;;;;;;11.10;99.90;;;;;;5086671;28;19991;-86
2023/05/26 05:20:28;;;;;;;;;;;11.10;99.90;;;;;;5075128;28;19920;-86
2023/05/26 05:23:25;;;;;;;;;;;11.20;99.90;;;;;;5059628;28;19908;-87
2023/05/26 05:25:52;;;;;;;;;;;11.20;99.90;;;;;;5076031;28;19919;-85
2023/05/26 05:28:18;;;;;;;;;;;11.30;99.90;;;;;;5075741;28;19909;-87
2023/05/26 05:30:57;;;;;;;;;;;11.40;99.90;;;;;;5076290;28;20275;-86
2023/05/26 05:33:22;;;;;;;;;;;11.50;99.90;;;;;;5049761;28;19909;-85
2023/05/26 05:35:49;;;;;;;;;;;11.50;99.90;;;;;;5089241;28;20678;-86
2023/05/26 05:38:15;;;;;;;;;;;11.60;99.90;;;;;;5070513;28;20273;-86
2023/05/26 05:40:41;;;;;;;;;;;11.60;99.90;;;;;;5068974;28;19919;-85
2023/05/26 05:43:07;;;;;;;;;;;11.80;99.90;;;;;;5090597;28;19915;-86
2023/05/26 05:45:33;;;;;;;;;;;11.80;99.90;;;;;;5071543;28;19915;-86
2023/05/26 05:48:05;;;;;;;;;;;11.80;99.90;;;;;;5069525;28;19908;-86
2023/05/26 05:50:33;;;;;;;;;;;11.90;99.90;;;;;;5072193;28;20415;-86
2023/05/26 05:52:59;;;;;;;;;;;12.00;99.90;;;;;;5066328;28;19959;-87
2023/05/26 05:55:24;;;;;;;;;;;12.10;99.90;;;;;;5069384;28;19908;-86
2023/05/26 05:57:52;;;;;;;;;;;12.10;99.90;;;;;;5070003;28;19912;-86
2023/05/26 06:00:18;;;;;;;;;;;12.20;99.90;;;;;;5071266;28;20550;-88
2023/05/26 06:02:44;;;;;;;;;;;12.30;99.90;;;;;;5068088;28;19927;-86
2023/05/26 06:05:09;;;;;;;;;;;12.30;99.90;;;;;;5082280;28;20011;-86
2023/05/26 06:07:35;;;;;;;;;;;12.40;99.90;;;;;;5068523;28;19920;-86
2023/05/26 06:10:01;;;;;;;;;;;12.50;99.90;;;;;;5081362;28;19943;-87
2023/05/26 06:12:27;;;;;;;;;;;12.60;99.90;;;;;;5064687;28;20003;-86
2023/05/26 06:14:52;;;;;;;;;;;12.60;99.90;;;;;;5069334;28;19912;-86
2023/05/26 06:17:18;;;;;;;;;;;12.70;99.90;;;;;;5068283;28;19916;-87
2023/05/26 06:19:44;;;;;;;;;;;12.80;99.90;;;;;;5067998;28;20541;-86
2023/05/26 06:22:09;;;;;;;;;;;12.80;99.90;;;;;;5062758;28;24076;-87
2023/05/26 06:24:35;;;;;;;;;;;12.90;99.90;;;;;;5066248;28;19917;-86
2023/05/26 06:27:01;;;;;;;;;;;12.90;99.90;;;;;;5066443;28;19913;-87
2023/05/26 06:29:27;;;;;;;;;;;13.00;99.90;;;;;;5066302;28;20280;-87
2023/05/26 06:31:53;;;;;;;;;;;13.10;99.90;;;;;;5065917;28;19905;-87
2023/05/26 06:34:19;;;;;;;;;;;13.20;99.90;;;;;;5067051;28;19958;-87
2023/05/26 06:36:45;;;;;;;;;;;13.30;99.90;;;;;;5071957;28;19909;-87
2023/05/26 06:39:11;;;;;;;;;;;13.40;99.90;;;;;;5074763;28;19916;-87
2023/05/26 06:41:37;;;;;;;;;;;13.40;99.90;;;;;;5073639;28;24958;-87
2023/05/26 06:44:03;;;;;;;;;;;13.50;99.90;;;;;;5065376;28;20434;-87
2023/05/26 06:46:30;;;;;;;;;;;13.60;99.90;;;;;;5061350;28;19915;-87
2023/05/26 06:48:56;;;;;;;;;;;13.70;99.90;;;;;;5064656;28;20416;-87
2023/05/26 06:51:31;;;;;;;;;;;13.80;99.90;;;;;;5053917;28;19946;-87
2023/05/26 06:53:56;;;;;;;;;;;13.90;99.90;;;;;;5064081;28;19915;-87
2023/05/26 06:56:22;;;;;;;;;;;14.00;99.90;;;;;;5087168;28;19919;-86
2023/05/26 06:58:49;;;;;;;;;;;14.00;99.90;;;;;;5064835;28;20124;-87
2023/05/26 07:01:15;;;;;;;;;;;14.10;99.90;;;;;;5082776;28;19947;-86
2023/05/26 07:03:40;;;;;;;;;;;14.20;99.90;;;;;;5069176;28;20240;-87
2023/05/26 07:06:06;;;;;;;;;;;14.20;99.90;;;;;;5072687;28;19908;-88
2023/05/26 07:08:36;;;;;;;;;;;14.30;99.90;;;;;;5042404;28;19913;-87
2023/05/26 07:11:24;;;;;;;;;;;14.40;99.90;;;;;;5068259;28;20360;-86
2023/05/26 07:13:53;;;;;;;;;;;14.40;99.90;;;;;;5063551;28;20045;-87
2023/05/26 07:16:20;;;;;;;;;;;14.60;99.90;;;;;;5083137;28;19948;-89
2023/05/26 07:18:46;;;;;;;;;;;14.70;99.90;;;;;;5068625;28;20066;-87
2023/05/26 07:21:12;;;;;;;;;;;14.80;99.90;;;;;;5070524;28;19948;-87
2023/05/26 07:23:38;;;;;;;;;;;14.90;99.90;;;;;;5074955;28;20129;-86
2023/05/26 07:26:03;;;;;;;;;;;14.90;99.90;;;;;;5066364;28;19951;-87
2023/05/26 07:28:30;;;;;;;;;;;14.90;99.90;;;;;;5068836;28;20034;-87
2023/05/26 07:30:56;;;;;;;;;;;15.00;99.90;;;;;;5068320;28;19909;-85
2023/05/26 07:33:28;;;;;;;;;;;14.90;99.90;;;;;;5063694;28;19908;-86
2023/05/26 07:35:54;;;;;;;;;;;14.90;99.90;;;;;;5063557;28;19939;-85
2023/05/26 07:38:21;;;;;;;;;;;15.00;99.90;;;;;;5064955;28;19931;-85
2023/05/26 07:40:46;;;;;;;;;;;15.00;99.90;;;;;;5068360;28;19916;-87
2023/05/26 07:43:12;;;;;;;;;;;15.10;99.90;;;;;;5053963;28;19957;-88
2023/05/26 07:45:38;;;;;;;;;;;15.20;99.90;;;;;;5080538;28;20027;-87
2023/05/26 07:48:03;;;;;;;;;;;15.30;99.90;;;;;;5064487;28;20061;-87
2023/05/26 07:50:30;;;;;;;;;;;16.10;99.90;;;;;;5067636;28;20041;-87
2023/05/26 07:52:55;;;;;;;;;;;17.60;99.90;;;;;;5074163;28;19953;-86
2023/05/26 07:55:21;;;;;;;;;;;19.10;99.90;;;;;;5068901;28;20049;-87
2023/05/26 07:57:46;;;;;;;;;;;20.80;99.90;;;;;;5087583;28;20368;-87
2023/05/26 08:00:12;;;;;;;;;;;22.30;99.90;;;;;;5066282;28;19912;-87
2023/05/26 08:02:41;;;;;;;;;;;22.70;99.90;;;;;;5058240;28;20325;-85
2023/05/26 08:05:07;;;;;;;;;;;23.20;99.90;;;;;;5060032;28;19957;-88
2023/05/26 08:07:33;;;;;;;;;;;23.30;99.60;;;;;;5072515;28;19909;-87
2023/05/26 08:09:58;;;;;;;;;;;23.70;98.10;;;;;;5072087;28;19963;-88
2023/05/26 08:12:24;;;;;;;;;;;24.40;95.10;;;;;;5073729;28;19961;-88
2023/05/26 08:14:50;;;;;;;;;;;25.00;93.00;;;;;;5083116;28;20357;-89
2023/05/26 08:17:16;;;;;;;;;;;25.50;91.90;;;;;;5081835;28;19969;-87
2023/05/26 08:19:41;;;;;;;;;;;25.70;88.40;;;;;;5109514;27;19913;-88
2023/05/26 08:22:07;;;;;;;;;;;25.50;85.70;;;;;;5074373;28;19923;-88
2023/05/26 08:24:33;;;;;;;;;;;25.30;85.90;;;;;;5072584;28;20007;-88
2023/05/26 08:26:58;;;;;;;;;;;25.60;84.20;;;;;;5078012;28;19913;-87
2023/05/26 08:29:24;;;;;;;;;;;25.80;83.70;;;;;;5075879;28;19913;-88
2023/05/26 08:31:50;;;;;;;;;;;25.20;83.90;;;;;;5081338;28;19913;-88
2023/05/26 08:34:16;;;;;;;;;;;25.30;83.60;;;;;;5072835;28;19916;-88
2023/05/26 08:36:41;;;;;;;;;;;25.40;82.40;;;;;;5064458;28;19912;-88
2023/05/26 08:39:08;;;;;;;13.20;6.10;;;25.80;82.40;;;;;;5072757;28;19979;-88
2023/05/26 08:41:59;;;;;;;14.80;6.13;;;26.10;80.80;;;;;;5055257;28;20040;-88
2023/05/26 08:44:25;;;;;;;14.80;6.55;;;26.10;78.50;;;;;;5055807;28;20402;-87
2023/05/26 08:46:55;;;;;;;11.95;6.85;;;25.10;81.30;;;;;;5056380;28;20028;-87
2023/05/26 08:49:22;;;;;;;11.95;6.00;;;25.10;80.00;;;;;;5061503;28;20032;-87
2023/05/26 08:52:18;;;;;;;11.40;5.80;;;25.30;80.30;;;;;;5074134;28;20380;-88
2023/05/26 08:54:45;;;;;;;12.75;6.38;;;25.60;78.60;;;;;;5059479;28;20112;-87
2023/05/26 08:57:12;;;;;;;11.25;6.75;;;26.00;80.00;;;;;;5072281;28;20035;-88
2023/05/26 08:59:39;;;;;;;16.42;6.18;;;26.00;78.80;;;;;;5055320;28;20032;-87
2023/05/26 09:02:23;;;;;;;15.10;6.85;;;25.50;78.80;;;;;;5073911;28;20051;-88
2023/05/26 09:04:50;;;;;;;10.60;6.50;;;25.60;77.10;;;;;;5054151;28;20028;-89
2023/05/26 09:07:17;;;;;;;8.77;6.07;;;26.00;76.50;;;;;;5055297;28;20044;-87
2023/05/26 09:09:44;;;;;;;9.00;5.53;;;26.30;77.20;;;;;;5071690;28;20033;-87
2023/05/26 09:12:11;;;;;;;13.55;6.95;;;26.60;77.00;;;;;;5072958;28;20035;-87
2023/05/26 09:14:38;;;;;;;14.43;6.15;;;25.90;75.40;;;;;;5074054;28;20051;-87
2023/05/26 09:17:04;;;;;;;14.25;7.00;;;25.20;76.10;;;;;;5056125;28;20026;-88
2023/05/26 09:19:32;;;;;;;14.85;7.22;;;24.90;79.00;;;;;;5056093;28;20499;-87
2023/05/26 09:22:08;;;;;;;12.57;5.88;;;24.60;79.30;;;;;;5078233;28;20024;-87
2023/05/26 09:24:48;;;;;;;12.80;6.78;;;25.00;81.10;;;;;;5055415;28;20034;-89
2023/05/26 09:27:22;;;;;;;10.77;5.80;;;25.30;78.50;;;;;;5065871;28;20055;-88
2023/05/26 09:29:57;;;;;;;9.80;5.93;;;25.70;77.10;;;;;;5071697;28;20024;-87
2023/05/26 09:32:28;;;;;;;11.88;6.00;;;25.80;74.50;;;;;;5057404;28;20408;-86
2023/05/26 09:35:03;;;;;;;14.82;5.72;;;26.00;75.30;;;;;;5052067;28;20419;-87
2023/05/26 09:37:30;;;;;;;12.80;6.60;;;26.10;76.60;;;;;;5063577;28;20094;-88
2023/05/26 09:40:09;;;;;;;12.65;6.10;;;25.50;73.80;;;;;;5119610;28;20441;-87
2023/05/26 09:42:45;;;;;;;14.40;6.47;;;25.60;73.70;;;;;;5080434;28;20027;-87
2023/05/26 09:45:10;;;;;;;10.40;5.65;;;26.10;75.20;;;;;;5050938;28;20029;-88
2023/05/26 09:47:43;;;;;;;19.05;6.78;;;25.60;74.00;;;;;;5100918;28;20027;-88
2023/05/26 09:50:09;;;;;;;16.50;7.03;;;25.30;75.60;;;;;;5079345;28;20116;-87
2023/05/26 09:52:36;;;;;;;13.80;6.38;;;25.00;74.70;;;;;;5069451;28;20028;-88
2023/05/26 09:55:03;;;;;;;13.25;7.03;;;25.00;74.30;;;;;;5069307;28;20500;-87
2023/05/26 09:57:29;;;;;;;13.93;6.38;;;24.60;73.20;;;;;;5072825;28;20021;-88
2023/05/26 09:59:56;;;;;;;12.82;6.80;;;25.00;76.70;;;;;;5070127;28;20499;-87
2023/05/26 10:02:25;;;;;;;12.80;6.82;;;24.70;72.90;;;;;;5091347;28;20067;-87
2023/05/26 10:04:53;;;;;;;17.73;6.30;;;24.60;75.10;;;;;;5115853;27;20028;-87
2023/05/26 10:07:22;;;;;;;15.82;6.32;;;24.40;76.20;;;;;;5106474;27;20033;-88
2023/05/26 10:10:02;;;;;;;10.70;6.28;;;24.50;75.30;;;;;;5065160;28;20052;-87
2023/05/26 10:12:33;;;;;;;11.73;6.28;;;24.30;78.20;;;;;;5059603;28;20028;-87
2023/05/26 10:15:00;;;;;;;15.55;6.22;;;24.20;76.90;;;;;;5121821;27;20231;-87
2023/05/26 10:17:26;;;;;;;12.32;6.47;;;24.00;79.00;;;;;;5071148;28;20022;-88
2023/05/26 10:19:57;;;;;;;10.32;6.00;;;23.70;75.90;;;;;;5060965;28;20491;-87
2023/05/26 10:22:54;;;;;;;11.32;6.25;;;23.40;78.00;;;;;;5058212;28;20029;-87
2023/05/26 10:25:32;;;;;;;12.25;6.72;;;23.20;80.50;;;;;;5080550;28;20036;-87
2023/05/26 10:28:08;;;;;;;12.73;5.93;;;22.90;81.50;;;;;;5067221;28;20020;-85
2023/05/26 10:30:34;;;;;;;14.80;5.90;;;23.00;79.30;;;;;;5073944;28;20039;-87
2023/05/26 10:33:11;;;;;;;10.98;6.25;;;23.10;78.00;;;;;;5057884;28;20119;-86
2023/05/26 10:35:47;;;;;;;13.13;6.05;;;23.10;81.40;;;;;;5074410;28;20044;-87
2023/05/26 10:38:13;;;;;;;14.68;6.35;;;23.10;81.00;;;;;;5101100;28;20035;-86
2023/05/26 10:40:56;;;;;;;9.90;6.05;;;23.10;80.90;;;;;;5057350;28;20029;-87
2023/05/26 10:43:23;;;;;;;11.27;6.28;;;23.40;79.90;;;;;;5057829;28;20020;-86
2023/05/26 10:45:59;;;;;;;12.70;5.60;;;23.30;79.70;;;;;;5057242;28;21042;-87
2023/05/26 10:48:46;;;;;;;11.05;5.57;;;23.20;80.70;;;;;;5057537;28;20538;-87
2023/05/26 10:51:23;;;;;;;15.18;5.95;;;23.70;79.20;;;;;;5081822;28;20543;-87
2023/05/26 10:53:51;;;;;;;14.05;5.50;;;23.30;80.80;;;;;;5057064;28;20033;-86
2023/05/26 10:56:18;;;;;;;10.27;5.88;;;23.10;80.00;;;;;;5056685;28;20077;-87
2023/05/26 10:58:56;;;;;;;9.98;5.78;;;23.50;78.80;;;;;;5056630;28;20155;-86
2023/05/26 11:01:28;;;;;;;10.02;5.60;;;23.90;81.80;;;;;;5075051;28;20020;-87
2023/05/26 11:04:10;;;;;;;12.55;5.65;;;23.90;78.90;;;;;;5057808;28;20126;-87
2023/05/26 11:06:56;;;;;;;13.80;6.15;;;23.40;78.70;;;;;;5073565;28;20032;-86
2023/05/26 11:09:26;;;;;;;9.13;5.22;;;23.80;79.00;;;;;;5056721;28;20029;-86
2023/05/26 11:12:05;;;;;;;10.00;5.40;;;24.00;78.30;;;;;;5057080;28;20043;-86
2023/05/26 11:14:33;;;;;;;9.52;4.70;;;24.20;72.00;;;;;;5057538;28;20028;-87
2023/05/26 11:17:01;;;;;;;13.05;5.15;;;24.70;72.10;;;;;;5058440;28;20479;-85
2023/05/26 11:19:28;;;;;;;13.13;5.63;;;25.00;69.50;;;;;;5059265;28;20155;-87
2023/05/26 11:22:10;;;;;;;10.77;5.40;;;25.10;67.70;;;;;;5089491;28;20468;-86
2023/05/26 11:24:36;;;;;;;8.85;4.95;;;25.20;70.80;;;;;;5056356;28;20054;-86
2023/05/26 11:27:05;;;;;;;17.70;5.60;;;25.50;73.50;;;;;;5056775;28;20070;-88
2023/05/26 11:29:31;;;;;;;13.65;4.68;;;25.80;73.20;;;;;;5070613;28;20077;-87
2023/05/26 11:31:57;;;;;;;10.02;5.72;;;25.70;75.40;;;;;;5072608;28;20024;-87
2023/05/26 11:34:24;;;;;;;13.68;5.80;;;25.70;74.50;;;;;;5056866;28;20062;-88
2023/05/26 11:36:53;;;;;;;11.60;5.40;;;25.40;73.40;;;;;;5055681;28;20036;-86
2023/05/26 11:39:20;;;;;;;11.25;6.45;;;25.50;74.30;;;;;;5055829;28;20039;-86
2023/05/26 11:41:46;;;;;;;10.68;5.03;;;25.00;70.90;;;;;;5055230;28;20036;-86
2023/05/26 11:44:15;;;;;;;10.98;4.85;;;24.80;74.50;;;;;;5048620;28;20035;-87
2023/05/26 11:46:43;;;;;;;10.20;4.65;;;24.80;72.60;;;;;;5102937;27;20047;-87
2023/05/26 11:49:15;;;;;;;10.90;5.18;;;24.70;71.80;;;;;;5104986;27;20111;-86
2023/05/26 11:51:50;;;;;;;11.48;5.22;;;24.70;71.80;;;;;;5078884;28;20029;-86
2023/05/26 11:54:16;;;;;;;9.43;4.20;;;24.30;69.80;;;;;;5063731;28;20028;-86
2023/05/26 11:56:44;;;;;;;8.52;4.88;;;23.90;70.40;;;;;;5074508;28;20025;-87
2023/05/26 11:59:09;;;;;;;11.18;5.13;;;23.70;70.70;;;;;;5051644;28;20063;-88
2023/05/26 12:01:35;;;;;;;12.25;5.53;;;23.80;71.10;;;;;;5060057;28;20488;-87
2023/05/26 12:04:04;;;;;;;9.35;4.75;;;23.60;68.90;;;;;;5060147;28;20409;-87
2023/05/26 12:06:31;;;;;;;9.48;4.90;;;23.30;71.20;;;;;;5072605;28;20092;-86
2023/05/26 12:09:02;;;;;;;8.07;4.47;;;23.60;70.60;;;;;;5071647;28;20043;-87
2023/05/26 12:11:33;;;;;;;9.98;5.00;;;23.40;68.80;;;;;;5066752;28;20391;-87
2023/05/26 12:14:01;;;;;;;7.30;4.78;;;23.40;70.60;;;;;;5067774;28;20372;-87
2023/05/26 12:16:35;;;;;;;7.72;4.40;;;23.30;73.00;;;;;;5079375;28;20067;-87
2023/05/26 12:19:08;;;;;;;9.48;5.03;;;23.20;71.90;;;;;;5071900;28;20060;-87
2023/05/26 12:21:51;;;;;;;8.05;4.88;;;23.50;69.00;;;;;;5079791;28;20032;-86
2023/05/26 12:24:36;;;;;;;13.40;5.60;;;24.00;69.20;;;;;;5053757;28;20473;-87
2023/05/26 12:27:20;;;;;;;8.88;4.78;;;24.80;67.40;;;;;;5065052;28;20039;-87
2023/05/26 12:29:46;;;;;;;11.63;5.55;;;25.10;69.50;;;;;;5062182;28;20033;-86
2023/05/26 12:32:11;;;;;;;7.85;4.50;;;25.50;71.80;;;;;;5062470;28;20468;-87
2023/05/26 12:34:38;;;;;;;6.75;4.07;;;26.10;66.10;;;;;;5044401;28;20103;-88
2023/05/26 12:37:16;;;;;;;7.80;4.00;;;26.20;66.30;;;;;;5060779;28;20086;-86
2023/05/26 12:39:42;;;;;;;;;;;26.30;64.40;;;;;;5085253;28;20333;-86
2023/05/26 12:42:08;;;;;;;;;;;26.30;62.30;;;;;;5076375;28;19917;-87
2023/05/26 12:44:33;;;;;;;11.80;4.00;;;26.30;60.40;;;;;;5080210;28;19916;-87
2023/05/26 12:46:59;;;;;;;9.02;3.42;;;26.40;62.70;;;;;;5076158;28;20942;-87
2023/05/26 12:49:25;;;;;;;5.25;3.45;;;26.40;55.70;;;;;;5058552;28;20153;-87
2023/05/26 12:51:51;;;;;;;8.27;4.43;;;26.50;54.70;;;;;;5099590;28;20079;-86
2023/05/26 12:54:16;;;;;;;13.77;3.95;;;27.00;55.50;;;;;;5077829;28;20460;-86
2023/05/26 12:56:42;;;;;;;11.45;4.20;;;27.20;58.70;;;;;;5077774;28;20032;-87
2023/05/26 12:59:08;;;;;;;;;;;27.10;58.60;;;;;;5079447;28;19912;-87
2023/05/26 13:01:33;;;;;;;;;;;26.90;58.80;;;;;;5058036;28;20003;-88
2023/05/26 13:03:59;;;;;;;;;;;27.10;61.70;;;;;;5072570;28;20039;-87
2023/05/26 13:06:25;;;;;;;;;;;27.40;58.10;;;;;;5068636;28;19912;-87
2023/05/26 13:08:50;;;;;;;;;;;27.50;60.00;;;;;;5104064;28;20283;-87
2023/05/26 13:11:31;;;;;;;;;;;27.50;57.20;;;;;;5067211;28;19916;-87
2023/05/26 13:13:57;;;;;;;;;;;27.90;58.20;;;;;;5073592;28;19908;-87
2023/05/26 13:16:22;;;;;;;;;;;28.10;59.50;;;;;;5073196;28;19909;-88
2023/05/26 13:18:48;;;;;;;;;;;28.00;61.60;;;;;;5064726;28;19908;-88
2023/05/26 13:21:13;;;;;;;;;;;27.90;60.30;;;;;;5094711;28;19935;-88
2023/05/26 13:23:39;;;;;;;;;;;27.80;59.70;;;;;;5062131;28;20000;-87
2023/05/26 13:26:06;;;;;;;;;;;27.80;57.80;;;;;;5083526;28;20008;-87
2023/05/26 13:28:33;;;;;;;;;;;27.60;56.00;;;;;;5075223;28;19950;-87
2023/05/26 13:31:02;;;;;;;;;;;27.30;57.80;;;;;;5082932;28;20400;-88
2023/05/26 13:33:27;;;;;;;;;;;27.40;57.50;;;;;;5075432;28;20260;-87
2023/05/26 13:35:53;;;;;;;;;;;27.10;57.70;;;;;;5070245;28;19995;-87
2023/05/26 13:38:18;;;;;;;;;;;26.70;57.10;;;;;;5074156;28;19912;-87
2023/05/26 13:40:44;;;;;;;;;;;26.60;57.00;;;;;;5061405;28;20626;-89
2023/05/26 13:43:10;;;;;;;;;;;27.30;58.40;;;;;;5087546;28;19965;-87
2023/05/26 13:45:36;;;;;;;;;;;26.70;58.80;;;;;;5090479;28;20387;-88
2023/05/26 13:48:01;;;;;;;;;;;26.40;60.80;;;;;;5083390;28;19955;-89
2023/05/26 13:50:27;;;;;;;;;;;26.40;59.90;;;;;;5059157;28;19909;-87
2023/05/26 13:55:57;;;;;;;;;;;26.70;59.30;;;;;;5090158;28;19908;-87